createdAt,value
2018-10-19T00:00:42.882Z,996.65
2018-10-19T00:01:42.889Z,996.64
2018-10-19T00:02:43.028Z,996.64
2018-10-19T00:03:43.171Z,996.60
2018-10-19T00:04:43.301Z,996.59
2018-10-19T00:05:43.435Z,996.58
2018-10-19T00:06:43.575Z,996.55
2018-10-19T00:07:43.710Z,996.58
2018-10-19T00:08:43.856Z,996.52
2018-10-19T00:09:44.003Z,996.53
2018-10-19T00:10:44.147Z,996.55
2018-10-19T00:11:44.286Z,996.55
2018-10-19T00:12:44.452Z,996.51
2018-10-19T00:13:44.566Z,996.58
2018-10-19T00:14:44.722Z,996.58
2018-10-19T00:15:44.846Z,996.61
2018-10-19T00:16:44.985Z,996.57
2018-10-19T00:17:45.129Z,996.57
2018-10-19T00:18:45.270Z,996.59
2018-10-19T00:19:45.397Z,996.56
2018-10-19T00:20:45.535Z,996.54
2018-10-19T00:21:45.672Z,996.56
2018-10-19T00:22:45.835Z,996.60
2018-10-19T00:23:45.963Z,996.58
2018-10-19T00:24:46.104Z,996.60
2018-10-19T00:25:46.282Z,996.65
2018-10-19T00:26:46.410Z,996.60
2018-10-19T00:27:46.548Z,996.62
2018-10-19T00:28:46.691Z,996.60
2018-10-19T00:29:46.856Z,996.59
2018-10-19T00:30:47.076Z,996.59
2018-10-19T00:31:47.084Z,996.64
2018-10-19T00:32:47.224Z,996.61
2018-10-19T00:33:47.388Z,996.53
2018-10-19T00:34:47.497Z,996.51
2018-10-19T00:35:47.641Z,996.52
2018-10-19T00:36:47.804Z,996.49
2018-10-19T00:37:47.909Z,996.48
2018-10-19T00:38:48.050Z,996.50
2018-10-19T00:39:48.180Z,996.49
2018-10-19T00:40:48.311Z,996.46
2018-10-19T00:41:48.443Z,996.51
2018-10-19T00:42:48.581Z,996.45
2018-10-19T00:43:48.718Z,996.46
2018-10-19T00:44:48.853Z,996.42
2018-10-19T00:45:49.031Z,996.41
2018-10-19T00:46:49.145Z,996.41
2018-10-19T00:47:49.275Z,996.42
2018-10-19T00:48:49.413Z,996.42
2018-10-19T00:49:49.570Z,996.40
2018-10-19T00:50:49.702Z,996.40
2018-10-19T00:51:49.842Z,996.41
2018-10-19T00:52:49.972Z,996.39
2018-10-19T00:53:50.133Z,996.39
2018-10-19T00:54:50.272Z,996.40
2018-10-19T00:55:50.414Z,996.45
2018-10-19T00:56:50.546Z,996.45
2018-10-19T00:57:50.759Z,996.44
2018-10-19T00:58:50.870Z,996.48
2018-10-19T00:59:51.003Z,996.44
2018-10-19T01:00:51.135Z,996.44
2018-10-19T01:01:51.303Z,996.44
2018-10-19T01:02:51.446Z,996.41
2018-10-19T01:03:51.589Z,996.40
2018-10-19T01:04:51.716Z,996.37
2018-10-19T01:05:51.850Z,996.39
2018-10-19T01:06:52.037Z,996.37
2018-10-19T01:07:52.168Z,996.35
2018-10-19T01:08:52.311Z,996.37
2018-10-19T01:09:52.495Z,996.34
2018-10-19T01:10:52.627Z,996.36
2018-10-19T01:11:52.769Z,996.32
2018-10-19T01:12:52.900Z,996.34
2018-10-19T01:13:53.062Z,996.37
2018-10-19T01:14:53.244Z,996.37
2018-10-19T01:15:53.333Z,996.38
2018-10-19T01:16:53.478Z,996.38
2018-10-19T01:17:53.623Z,996.38
2018-10-19T01:18:53.753Z,996.35
2018-10-19T01:19:53.888Z,996.35
2018-10-19T01:20:54.069Z,996.34
2018-10-19T01:21:54.251Z,996.35
2018-10-19T01:22:54.313Z,996.31
2018-10-19T01:23:54.401Z,996.31
2018-10-19T01:24:54.533Z,996.32
2018-10-19T01:25:54.663Z,996.32
2018-10-19T01:26:54.847Z,996.31
2018-10-19T01:27:54.950Z,996.31
2018-10-19T01:28:55.091Z,996.32
2018-10-19T01:29:55.216Z,996.30
2018-10-19T01:30:55.351Z,996.31
2018-10-19T01:31:55.492Z,996.29
2018-10-19T01:32:55.720Z,996.31
2018-10-19T01:33:55.796Z,996.33
2018-10-19T01:34:55.931Z,996.33
2018-10-19T01:35:56.060Z,996.31
2018-10-19T01:36:56.209Z,996.29
2018-10-19T01:37:56.342Z,996.28
2018-10-19T01:38:56.528Z,996.28
2018-10-19T01:39:56.613Z,996.30
2018-10-19T01:40:56.768Z,996.32
2018-10-19T01:41:56.898Z,996.34
2018-10-19T01:42:57.039Z,996.36
2018-10-19T01:43:57.173Z,996.33
2018-10-19T01:44:57.363Z,996.39
2018-10-19T01:45:57.447Z,996.36
2018-10-19T01:46:57.622Z,996.37
2018-10-19T01:47:57.749Z,996.39
2018-10-19T01:48:57.886Z,996.36
2018-10-19T01:49:58.018Z,996.37
2018-10-19T01:50:58.190Z,996.38
2018-10-19T01:51:58.302Z,996.41
2018-10-19T01:52:58.489Z,996.42
2018-10-19T01:53:58.578Z,996.39
2018-10-19T01:54:58.735Z,996.42
2018-10-19T01:55:58.867Z,996.39
2018-10-19T01:56:59.009Z,996.43
2018-10-19T01:57:59.143Z,996.42
2018-10-19T01:58:59.282Z,996.40
2018-10-19T01:59:59.410Z,996.42
2018-10-19T02:00:59.554Z,996.39
2018-10-19T02:01:59.686Z,996.41
2018-10-19T02:02:59.870Z,996.35
2018-10-19T02:03:59.967Z,996.37
2018-10-19T02:05:00.182Z,996.40
2018-10-19T02:06:00.245Z,996.37
2018-10-19T02:07:00.376Z,996.39
2018-10-19T02:08:00.512Z,996.35
2018-10-19T02:09:00.704Z,996.39
2018-10-19T02:10:00.785Z,996.39
2018-10-19T02:11:00.936Z,996.38
2018-10-19T02:12:01.055Z,996.38
2018-10-19T02:13:01.218Z,996.39
2018-10-19T02:14:01.325Z,996.39
2018-10-19T02:15:02.179Z,996.39
2018-10-19T02:16:01.627Z,996.37
2018-10-19T02:17:01.773Z,996.38
2018-10-19T02:18:01.909Z,996.38
2018-10-19T02:19:02.045Z,996.43
2018-10-19T02:20:02.172Z,996.44
2018-10-19T02:21:02.378Z,996.44
2018-10-19T02:22:02.460Z,996.46
2018-10-19T02:23:02.649Z,996.45
2018-10-19T02:24:02.731Z,996.45
2018-10-19T02:25:02.868Z,996.48
2018-10-19T02:26:03.008Z,996.44
2018-10-19T02:27:03.164Z,996.46
2018-10-19T02:28:03.284Z,996.49
2018-10-19T02:29:03.445Z,996.46
2018-10-19T02:30:03.560Z,996.50
2018-10-19T02:31:03.698Z,996.52
2018-10-19T02:32:03.835Z,996.50
2018-10-19T02:33:04.009Z,996.52
2018-10-19T02:34:04.121Z,996.54
2018-10-19T02:35:04.367Z,996.59
2018-10-19T02:36:04.349Z,996.58
2018-10-19T02:37:04.486Z,996.59
2018-10-19T02:38:04.625Z,996.58
2018-10-19T02:39:04.831Z,996.60
2018-10-19T02:40:04.888Z,996.55
2018-10-19T02:41:05.034Z,996.54
2018-10-19T02:42:05.159Z,996.55
2018-10-19T02:43:05.291Z,996.56
2018-10-19T02:44:05.432Z,996.51
2018-10-19T02:45:05.582Z,996.49
2018-10-19T02:46:05.760Z,996.49
2018-10-19T02:47:05.909Z,996.54
2018-10-19T02:48:06.018Z,996.53
2018-10-19T02:49:06.156Z,996.54
2018-10-19T02:50:06.291Z,996.55
2018-10-19T02:51:06.495Z,996.53
2018-10-19T02:52:06.572Z,996.51
2018-10-19T02:53:06.759Z,996.51
2018-10-19T02:54:06.846Z,996.51
2018-10-19T02:55:06.981Z,996.51
2018-10-19T02:56:07.115Z,996.54
2018-10-19T02:57:07.353Z,996.54
2018-10-19T02:58:07.424Z,996.52
2018-10-19T02:59:07.589Z,996.53
2018-10-19T03:00:07.736Z,996.55
2018-10-19T03:01:07.890Z,996.54
2018-10-19T03:02:08.002Z,996.56
2018-10-19T03:03:08.165Z,996.56
2018-10-19T03:04:08.302Z,996.56
2018-10-19T03:05:08.497Z,996.59
2018-10-19T03:06:08.571Z,996.56
2018-10-19T03:07:08.724Z,996.61
2018-10-19T03:08:08.882Z,996.62
2018-10-19T03:09:09.092Z,996.62
2018-10-19T03:10:09.147Z,996.60
2018-10-19T03:11:09.346Z,996.60
2018-10-19T03:12:09.412Z,996.62
2018-10-19T03:13:09.547Z,996.58
2018-10-19T03:14:09.683Z,996.59
2018-10-19T03:15:09.954Z,996.62
2018-10-19T03:16:10.754Z,996.57
2018-10-19T03:17:10.158Z,996.63
2018-10-19T03:18:10.209Z,996.62
2018-10-19T03:19:10.341Z,996.60
2018-10-19T03:20:10.477Z,996.61
2018-10-19T03:21:10.648Z,996.63
2018-10-19T03:22:10.747Z,996.61
2018-10-19T03:23:10.968Z,996.58
2018-10-19T03:24:11.020Z,996.60
2018-10-19T03:25:11.165Z,996.61
2018-10-19T03:26:11.315Z,996.59
2018-10-19T03:27:11.522Z,996.57
2018-10-19T03:28:11.575Z,996.60
2018-10-19T03:29:11.814Z,996.60
2018-10-19T03:30:11.910Z,996.57
2018-10-19T03:31:12.073Z,996.56
2018-10-19T03:32:12.150Z,996.59
2018-10-19T03:33:12.303Z,996.58
2018-10-19T03:34:12.451Z,996.57
2018-10-19T03:35:12.677Z,996.56
2018-10-19T03:36:12.719Z,996.52
2018-10-19T03:37:12.864Z,996.53
2018-10-19T03:38:13.025Z,996.54
2018-10-19T03:39:13.199Z,996.52
2018-10-19T03:40:13.295Z,996.56
2018-10-19T03:41:13.478Z,996.53
2018-10-19T03:42:13.593Z,996.52
2018-10-19T03:43:13.711Z,996.54
2018-10-19T03:44:13.852Z,996.54
2018-10-19T03:45:14.089Z,996.53
2018-10-19T03:46:14.160Z,996.53
2018-10-19T03:47:14.367Z,996.53
2018-10-19T03:48:15.048Z,996.52
2018-10-19T03:49:14.633Z,996.55
2018-10-19T03:50:14.705Z,996.50
2018-10-19T03:51:15.487Z,996.49
2018-10-19T03:52:14.964Z,996.48
2018-10-19T03:53:15.249Z,996.47
2018-10-19T03:54:15.238Z,996.44
2018-10-19T03:55:15.371Z,996.44
2018-10-19T03:56:15.507Z,996.46
2018-10-19T03:57:15.679Z,996.44
2018-10-19T03:58:15.774Z,996.47
2018-10-19T03:59:15.969Z,996.47
2018-10-19T04:00:16.050Z,996.47
2018-10-19T04:01:16.186Z,996.47
2018-10-19T04:02:16.341Z,996.46
2018-10-19T04:03:16.557Z,996.49
2018-10-19T04:04:16.617Z,996.45
2018-10-19T04:05:16.783Z,996.51
2018-10-19T04:06:16.885Z,996.52
2018-10-19T04:07:17.031Z,996.55
2018-10-19T04:08:17.166Z,996.52
2018-10-19T04:09:17.339Z,996.51
2018-10-19T04:10:17.438Z,996.52
2018-10-19T04:11:17.635Z,996.54
2018-10-19T04:12:18.436Z,996.53
2018-10-19T04:14:50.198Z,996.59
2018-10-19T04:15:50.193Z,996.48
2018-10-19T04:16:50.330Z,996.50
2018-10-19T04:17:51.373Z,996.52
2018-10-19T04:18:50.595Z,996.54
2018-10-19T04:19:50.725Z,996.52
2018-10-19T04:20:50.866Z,996.56
2018-10-19T04:21:51.006Z,996.53
2018-10-19T04:22:51.165Z,996.57
2018-10-19T04:23:51.403Z,996.56
2018-10-19T04:24:51.412Z,996.60
2018-10-19T04:25:51.550Z,996.59
2018-10-19T04:26:51.689Z,996.60
2018-10-19T04:27:51.820Z,996.61
2018-10-19T04:28:51.960Z,996.62
2018-10-19T04:29:52.107Z,996.65
2018-10-19T04:30:52.281Z,996.63
2018-10-19T04:31:52.413Z,996.63
2018-10-19T04:32:52.568Z,996.57
2018-10-19T04:33:52.738Z,996.60
2018-10-19T04:34:52.923Z,996.61
2018-10-19T04:35:53.005Z,996.64
2018-10-19T04:36:53.144Z,996.62
2018-10-19T04:37:53.280Z,996.60
2018-10-19T04:38:53.414Z,996.55
2018-10-19T04:39:53.549Z,996.59
2018-10-19T04:40:53.718Z,996.56
2018-10-19T04:41:53.940Z,996.55
2018-10-19T04:42:53.990Z,996.56
2018-10-19T04:43:54.138Z,996.55
2018-10-19T04:44:54.353Z,996.55
2018-10-19T04:45:54.413Z,996.54
2018-10-19T04:46:54.584Z,996.52
2018-10-19T04:47:54.694Z,996.51
2018-10-19T04:48:54.823Z,996.50
2018-10-19T04:49:54.961Z,996.52
2018-10-19T04:50:55.160Z,996.49
2018-10-19T04:51:55.239Z,996.51
2018-10-19T04:52:55.381Z,996.51
2018-10-19T04:53:55.516Z,996.50
2018-10-19T04:54:55.670Z,996.51
2018-10-19T04:55:55.801Z,996.49
2018-10-19T04:56:55.989Z,996.50
2018-10-19T04:57:56.099Z,996.53
2018-10-19T04:58:57.110Z,996.55
2018-10-19T04:59:56.342Z,996.57
2018-10-19T05:00:56.477Z,996.55
2018-10-19T05:01:56.613Z,996.57
2018-10-19T05:02:56.748Z,996.51
2018-10-19T05:03:56.880Z,996.54
2018-10-19T05:04:57.039Z,996.54
2018-10-19T05:05:57.262Z,996.61
2018-10-19T05:06:57.292Z,996.62
2018-10-19T05:07:57.480Z,996.62
2018-10-19T05:08:57.569Z,996.57
2018-10-19T05:09:57.700Z,996.60
2018-10-19T05:10:57.849Z,996.59
2018-10-19T05:11:57.999Z,996.57
2018-10-19T05:12:58.241Z,996.57
2018-10-19T05:13:58.327Z,996.62
2018-10-19T05:14:58.415Z,996.55
2018-10-19T05:15:58.545Z,996.59
2018-10-19T05:16:58.680Z,996.58
2018-10-19T05:17:58.815Z,996.63
2018-10-19T05:18:58.948Z,996.63
2018-10-19T05:19:59.091Z,996.63
2018-10-19T05:20:59.223Z,996.63
2018-10-19T05:21:59.361Z,996.65
2018-10-19T05:22:59.553Z,996.65
2018-10-19T05:23:59.634Z,996.64
2018-10-19T05:24:59.769Z,996.69
2018-10-19T05:25:59.931Z,996.67
2018-10-19T05:27:00.046Z,996.64
2018-10-19T05:28:00.223Z,996.68
2018-10-19T05:29:00.388Z,996.67
2018-10-19T05:30:00.496Z,996.71
2018-10-19T05:31:00.659Z,996.67
2018-10-19T05:32:00.810Z,996.72
2018-10-19T05:33:00.966Z,996.72
2018-10-19T05:34:01.063Z,996.70
2018-10-19T05:35:01.233Z,996.72
2018-10-19T05:36:01.350Z,996.72
2018-10-19T05:37:01.492Z,996.74
2018-10-19T05:38:01.685Z,996.72
2018-10-19T05:39:01.767Z,996.77
2018-10-19T05:40:01.902Z,996.80
2018-10-19T05:41:02.083Z,996.76
2018-10-19T05:42:02.173Z,996.78
2018-10-19T05:43:02.306Z,996.79
2018-10-19T05:44:02.493Z,996.80
2018-10-19T05:45:02.567Z,996.79
2018-10-19T05:46:02.698Z,996.78
2018-10-19T05:47:02.894Z,996.81
2018-10-19T05:48:02.966Z,996.78
2018-10-19T05:49:03.107Z,996.82
2018-10-19T05:50:03.262Z,996.80
2018-10-19T05:51:03.380Z,996.84
2018-10-19T05:52:03.523Z,996.80
2018-10-19T05:53:03.676Z,996.81
2018-10-19T05:54:03.799Z,996.82
2018-10-19T05:55:03.934Z,996.85
2018-10-19T05:56:04.146Z,996.86
2018-10-19T05:57:04.213Z,996.84
2018-10-19T05:58:04.350Z,996.83
2018-10-19T05:59:04.517Z,996.86
2018-10-19T06:00:04.628Z,996.88
2018-10-19T06:01:04.764Z,996.87
2018-10-19T06:02:04.960Z,996.90
2018-10-19T06:03:05.041Z,996.90
2018-10-19T06:04:05.165Z,996.90
2018-10-19T06:05:05.359Z,996.94
2018-10-19T06:06:05.440Z,996.89
2018-10-19T06:07:05.571Z,996.94
2018-10-19T06:08:05.731Z,996.94
2018-10-19T06:09:05.853Z,996.92
2018-10-19T06:10:06.740Z,996.96
2018-10-19T06:11:06.195Z,996.93
2018-10-19T06:12:06.281Z,996.91
2018-10-19T06:13:06.443Z,996.92
2018-10-19T06:14:06.643Z,996.92
2018-10-19T06:15:06.719Z,996.90
2018-10-19T06:16:06.850Z,996.91
2018-10-19T06:17:07.013Z,996.92
2018-10-19T06:18:07.128Z,996.95
2018-10-19T06:19:07.266Z,996.93
2018-10-19T06:20:07.414Z,996.90
2018-10-19T06:21:07.591Z,996.90
2018-10-19T06:22:07.670Z,996.91
2018-10-19T06:23:07.855Z,996.95
2018-10-19T06:24:07.950Z,996.98
2018-10-19T06:25:08.086Z,996.96
2018-10-19T06:26:08.417Z,997.01
2018-10-19T06:27:08.365Z,997.06
2018-10-19T06:28:08.497Z,997.05
2018-10-19T06:29:08.686Z,997.10
2018-10-19T06:30:08.773Z,997.06
2018-10-19T06:31:08.905Z,997.08
2018-10-19T06:32:09.108Z,997.09
2018-10-19T06:33:09.177Z,997.09
2018-10-19T06:34:09.309Z,997.09
2018-10-19T06:35:09.520Z,997.08
2018-10-19T06:36:09.577Z,997.09
2018-10-19T06:37:09.711Z,997.04
2018-10-19T06:38:09.914Z,997.06
2018-10-19T06:39:09.989Z,997.08
2018-10-19T06:40:10.125Z,997.09
2018-10-19T06:41:10.335Z,997.09
2018-10-19T06:42:10.408Z,997.09
2018-10-19T06:43:10.552Z,997.10
2018-10-19T06:44:11.792Z,997.09
2018-10-19T06:45:10.772Z,997.08
2018-10-19T06:46:10.910Z,997.10
2018-10-19T06:47:11.140Z,997.11
2018-10-19T06:48:11.188Z,997.08
2018-10-19T06:49:11.338Z,997.11
2018-10-19T06:50:11.523Z,997.11
2018-10-19T06:51:11.590Z,997.15
2018-10-19T06:52:11.736Z,997.11
2018-10-19T06:53:11.933Z,997.13
2018-10-19T06:54:12.002Z,997.11
2018-10-19T06:55:12.132Z,997.20
2018-10-19T06:56:12.346Z,997.20
2018-10-19T06:57:12.416Z,997.27
2018-10-19T06:58:12.546Z,997.26
2018-10-19T06:59:12.754Z,997.25
2018-10-19T07:00:12.827Z,997.30
2018-10-19T07:01:12.969Z,997.29
2018-10-19T07:02:13.152Z,997.30
2018-10-19T07:03:13.236Z,997.33
2018-10-19T07:04:13.374Z,997.35
2018-10-19T07:05:13.620Z,997.37
2018-10-19T07:06:13.761Z,997.37
2018-10-19T07:07:13.784Z,997.40
2018-10-19T07:08:13.930Z,997.43
2018-10-19T07:09:14.063Z,997.39
2018-10-19T07:10:14.209Z,997.40
2018-10-19T07:11:14.413Z,997.47
2018-10-19T07:12:14.540Z,997.48
2018-10-19T07:13:14.604Z,997.48
2018-10-19T07:14:14.778Z,997.49
2018-10-19T07:15:14.894Z,997.45
2018-10-19T07:16:15.027Z,997.47
2018-10-19T07:17:15.247Z,997.46
2018-10-19T07:18:15.302Z,997.48
2018-10-19T07:19:15.445Z,997.47
2018-10-19T07:20:15.602Z,997.48
2018-10-19T07:21:15.712Z,997.46
2018-10-19T07:22:15.853Z,997.50
2018-10-19T07:23:16.051Z,997.50
2018-10-19T07:24:16.125Z,997.50
2018-10-19T07:25:16.263Z,997.50
2018-10-19T07:26:16.407Z,997.52
2018-10-19T07:27:16.534Z,997.49
2018-10-19T07:28:16.667Z,997.49
2018-10-19T07:29:16.866Z,997.53
2018-10-19T07:30:16.943Z,997.51
2018-10-19T07:31:17.073Z,997.53
2018-10-19T07:32:17.204Z,997.55
2018-10-19T07:33:17.339Z,997.55
2018-10-19T07:34:17.486Z,997.55
2018-10-19T07:35:17.684Z,997.56
2018-10-19T07:36:17.808Z,997.56
2018-10-19T07:37:17.898Z,997.62
2018-10-19T07:38:18.037Z,997.61
2018-10-19T07:39:18.252Z,997.60
2018-10-19T07:40:18.258Z,997.65
2018-10-19T07:41:18.404Z,997.63
2018-10-19T07:42:18.617Z,997.67
2018-10-19T07:43:18.682Z,997.68
2018-10-19T07:44:18.817Z,997.70
2018-10-19T07:45:18.951Z,997.72
2018-10-19T07:46:19.084Z,997.73
2018-10-19T07:47:19.373Z,997.71
2018-10-19T07:48:19.402Z,997.72
2018-10-19T07:49:19.491Z,997.73
2018-10-19T07:50:19.636Z,997.73
2018-10-19T07:51:19.766Z,997.75
2018-10-19T07:52:19.916Z,997.76
2018-10-19T07:53:20.041Z,997.77
2018-10-19T07:54:20.182Z,997.77
2018-10-19T07:55:20.315Z,997.81
2018-10-19T07:56:20.451Z,997.81
2018-10-19T07:57:20.589Z,997.84
2018-10-19T07:58:20.725Z,997.88
2018-10-19T07:59:20.863Z,997.85
2018-10-19T08:00:21.029Z,997.89
2018-10-19T08:01:21.143Z,997.86
2018-10-19T08:02:21.280Z,997.91
2018-10-19T08:03:21.412Z,997.89
2018-10-19T08:04:21.554Z,997.91
2018-10-19T08:05:21.693Z,997.93
2018-10-19T08:06:21.842Z,997.90
2018-10-19T08:07:21.969Z,997.92
2018-10-19T08:08:22.120Z,997.92
2018-10-19T08:09:22.260Z,997.89
2018-10-19T08:10:23.253Z,997.92
2018-10-19T08:12:54.921Z,997.91
2018-10-19T08:13:55.061Z,997.90
2018-10-19T08:14:55.205Z,997.89
2018-10-19T08:15:55.343Z,997.92
2018-10-19T08:16:55.504Z,997.89
2018-10-19T08:17:55.624Z,997.88
2018-10-19T08:18:55.758Z,997.93
2018-10-19T08:19:55.901Z,997.91
2018-10-19T08:20:56.096Z,997.89
2018-10-19T08:21:56.182Z,997.86
2018-10-19T08:22:56.372Z,997.87
2018-10-19T08:23:56.459Z,997.85
2018-10-19T08:24:56.598Z,997.86
2018-10-19T08:25:56.773Z,997.86
2018-10-19T08:26:56.864Z,997.89
2018-10-19T08:27:56.997Z,997.87
2018-10-19T08:28:57.143Z,997.87
2018-10-19T08:29:57.278Z,997.88
2018-10-19T08:30:57.416Z,997.88
2018-10-19T08:31:57.586Z,997.88
2018-10-19T08:32:57.688Z,997.89
2018-10-19T08:33:57.828Z,997.90
2018-10-19T08:34:57.976Z,997.87
2018-10-19T08:35:58.102Z,997.85
2018-10-19T08:36:58.245Z,997.86
2018-10-19T08:37:58.379Z,997.86
2018-10-19T08:38:58.529Z,997.86
2018-10-19T08:39:58.650Z,997.88
2018-10-19T08:40:58.794Z,997.85
2018-10-19T08:41:58.937Z,997.89
2018-10-19T08:42:59.109Z,997.86
2018-10-19T08:43:59.198Z,997.93
2018-10-19T08:44:59.342Z,997.91
2018-10-19T08:45:59.467Z,997.98
2018-10-19T08:46:59.654Z,997.96
2018-10-19T08:47:59.740Z,997.94
2018-10-19T08:48:59.922Z,997.97
2018-10-19T08:50:00.008Z,998.00
2018-10-19T08:51:00.162Z,998.01
2018-10-19T08:52:00.279Z,998.00
2018-10-19T08:53:01.112Z,998.05
2018-10-19T08:54:00.622Z,998.03
2018-10-19T08:55:00.829Z,998.05
2018-10-19T08:56:00.914Z,998.02
2018-10-19T08:57:01.107Z,998.02
2018-10-19T08:58:01.246Z,997.99
2018-10-19T08:59:01.364Z,998.01
2018-10-19T09:00:01.485Z,997.98
2018-10-19T09:01:01.611Z,997.99
2018-10-19T09:02:01.740Z,998.01
2018-10-19T09:03:02.626Z,997.98
2018-10-19T09:04:02.014Z,998.02
2018-10-19T09:05:02.132Z,998.03
2018-10-19T09:06:02.291Z,998.06
2018-10-19T09:07:02.409Z,998.07
2018-10-19T09:08:02.546Z,998.08
2018-10-19T09:09:02.740Z,998.05
2018-10-19T09:10:02.824Z,998.08
2018-10-19T09:11:03.078Z,998.07
2018-10-19T09:12:03.102Z,998.07
2018-10-19T09:13:03.240Z,998.11
2018-10-19T09:14:03.377Z,998.12
2018-10-19T09:15:03.523Z,998.11
2018-10-19T09:16:03.657Z,998.13
2018-10-19T09:17:03.843Z,998.14
2018-10-19T09:18:03.932Z,998.12
2018-10-19T09:19:04.062Z,998.13
2018-10-19T09:20:04.203Z,998.18
2018-10-19T09:21:04.379Z,998.14
2018-10-19T09:22:04.473Z,998.17
2018-10-19T09:23:04.676Z,998.18
2018-10-19T09:24:04.755Z,998.14
2018-10-19T09:25:04.898Z,998.11
2018-10-19T09:26:05.036Z,998.09
2018-10-19T09:27:05.207Z,998.11
2018-10-19T09:28:05.308Z,998.12
2018-10-19T09:29:05.482Z,998.05
2018-10-19T09:30:05.610Z,998.05
2018-10-19T09:31:05.743Z,998.08
2018-10-19T09:32:05.881Z,998.08
2018-10-19T09:33:06.076Z,998.04
2018-10-19T09:34:06.188Z,998.04
2018-10-19T09:35:06.350Z,998.08
2018-10-19T09:36:06.491Z,998.01
2018-10-19T09:37:06.617Z,998.06
2018-10-19T09:38:06.748Z,998.05
2018-10-19T09:39:06.891Z,998.03
2018-10-19T09:40:07.108Z,998.07
2018-10-19T09:41:07.241Z,998.07
2018-10-19T09:42:07.384Z,998.08
2018-10-19T09:43:07.626Z,998.09
2018-10-19T09:44:07.569Z,998.09
2018-10-19T09:45:07.766Z,998.09
2018-10-19T09:46:08.580Z,998.11
2018-10-19T09:47:08.125Z,998.11
2018-10-19T09:48:08.117Z,998.14
2018-10-19T09:49:08.279Z,998.13
2018-10-19T09:50:08.392Z,998.09
2018-10-19T09:51:08.591Z,998.09
2018-10-19T09:52:08.657Z,998.11
2018-10-19T09:53:08.905Z,998.10
2018-10-19T09:54:08.935Z,998.11
2018-10-19T09:55:09.120Z,998.07
2018-10-19T09:56:09.262Z,998.08
2018-10-19T09:57:09.351Z,998.06
2018-10-19T09:58:09.478Z,998.13
2018-10-19T09:59:09.729Z,998.09
2018-10-19T10:00:09.751Z,998.08
2018-10-19T10:01:09.907Z,998.08
2018-10-19T10:02:10.067Z,998.06
2018-10-19T10:03:10.190Z,998.09
2018-10-19T10:04:10.295Z,998.08
2018-10-19T10:05:10.470Z,998.09
2018-10-19T10:06:10.634Z,998.09
2018-10-19T10:07:10.882Z,998.09
2018-10-19T10:08:10.911Z,998.08
2018-10-19T10:09:11.739Z,998.11
2018-10-19T10:10:11.215Z,998.05
2018-10-19T10:11:11.463Z,998.07
2018-10-19T10:12:11.490Z,998.06
2018-10-19T10:13:11.692Z,998.06
2018-10-19T10:14:11.767Z,998.00
2018-10-19T10:15:11.982Z,998.05
2018-10-19T10:16:12.039Z,998.03
2018-10-19T10:17:12.276Z,998.00
2018-10-19T10:18:12.362Z,998.02
2018-10-19T10:19:12.569Z,998.01
2018-10-19T10:20:12.640Z,997.99
2018-10-19T10:21:12.784Z,998.00
2018-10-19T10:22:12.996Z,997.98
2018-10-19T10:23:13.058Z,998.02
2018-10-19T10:24:13.205Z,998.01
2018-10-19T10:25:13.429Z,998.02
2018-10-19T10:26:13.503Z,998.03
2018-10-19T10:27:13.641Z,998.00
2018-10-19T10:28:13.839Z,997.98
2018-10-19T10:29:13.917Z,997.99
2018-10-19T10:30:14.051Z,997.96
2018-10-19T10:31:14.314Z,997.97
2018-10-19T10:32:14.339Z,997.92
2018-10-19T10:33:14.465Z,997.91
2018-10-19T10:34:14.658Z,997.93
2018-10-19T10:35:14.764Z,997.94
2018-10-19T10:36:14.886Z,997.89
2018-10-19T10:37:15.051Z,997.86
2018-10-19T10:38:15.162Z,997.88
2018-10-19T10:39:15.407Z,997.90
2018-10-19T10:40:15.506Z,997.89
2018-10-19T10:41:15.577Z,997.92
2018-10-19T10:42:15.722Z,997.91
2018-10-19T10:43:15.976Z,997.92
2018-10-19T10:44:16.009Z,997.91
2018-10-19T10:45:16.147Z,997.92
2018-10-19T10:46:16.306Z,997.92
2018-10-19T10:47:16.419Z,997.96
2018-10-19T10:48:16.554Z,997.95
2018-10-19T10:49:16.727Z,997.95
2018-10-19T10:50:16.826Z,997.93
2018-10-19T10:51:16.964Z,997.88
2018-10-19T10:52:17.104Z,997.84
2018-10-19T10:53:17.257Z,997.84
2018-10-19T10:54:17.388Z,997.81
2018-10-19T10:55:17.606Z,997.82
2018-10-19T10:56:17.665Z,997.84
2018-10-19T10:57:17.804Z,997.82
2018-10-19T10:58:17.946Z,997.86
2018-10-19T10:59:18.081Z,997.84
2018-10-19T11:00:18.265Z,997.79
2018-10-19T11:01:18.403Z,997.83
2018-10-19T11:02:18.579Z,997.80
2018-10-19T11:03:18.717Z,997.81
2018-10-19T11:04:18.885Z,997.75
2018-10-19T11:05:19.021Z,997.79
2018-10-19T11:06:19.158Z,997.74
2018-10-19T11:07:19.361Z,997.75
2018-10-19T11:08:19.449Z,997.77
2018-10-19T11:09:19.579Z,997.73
2018-10-19T11:10:19.724Z,997.75
2018-10-19T11:11:19.861Z,997.76
2018-10-19T11:12:19.991Z,997.73
2018-10-19T11:13:20.155Z,997.73
2018-10-19T11:14:20.289Z,997.77
2018-10-19T11:15:20.437Z,997.79
2018-10-19T11:16:20.568Z,997.74
2018-10-19T11:17:20.742Z,997.75
2018-10-19T11:18:20.901Z,997.72
2018-10-19T11:19:21.040Z,997.70
2018-10-19T11:20:21.185Z,997.63
2018-10-19T11:21:21.318Z,997.70
2018-10-19T11:22:21.466Z,997.65
2018-10-19T11:23:21.599Z,997.70
2018-10-19T11:24:21.741Z,997.67
2018-10-19T11:25:21.878Z,997.67
2018-10-19T11:26:22.016Z,997.72
2018-10-19T11:27:22.146Z,997.65
2018-10-19T11:28:22.290Z,997.68
2018-10-19T11:29:22.938Z,997.70
2018-10-19T11:30:22.584Z,997.68
2018-10-19T11:31:22.727Z,997.65
2018-10-19T11:32:22.862Z,997.64
2018-10-19T11:33:23.011Z,997.62
2018-10-19T11:34:23.163Z,997.62
2018-10-19T11:35:23.308Z,997.62
2018-10-19T11:36:23.446Z,997.59
2018-10-19T11:37:23.598Z,997.55
2018-10-19T11:38:23.743Z,997.58
2018-10-19T11:39:23.899Z,997.60
2018-10-19T11:40:24.049Z,997.60
2018-10-19T11:41:24.188Z,997.58
2018-10-19T11:42:24.324Z,997.58
2018-10-19T11:43:24.511Z,997.61
2018-10-19T11:44:24.643Z,997.67
2018-10-19T11:45:24.802Z,997.64
2018-10-19T11:46:24.936Z,997.59
2018-10-19T11:47:25.950Z,997.62
2018-10-19T11:48:25.154Z,997.63
2018-10-19T11:49:25.292Z,997.61
2018-10-19T11:50:25.447Z,997.60
2018-10-19T11:51:25.577Z,997.60
2018-10-19T11:52:25.721Z,997.61
2018-10-19T11:53:25.875Z,997.60
2018-10-19T11:54:26.021Z,997.53
2018-10-19T11:55:26.150Z,997.58
2018-10-19T11:56:26.288Z,997.56
2018-10-19T11:57:26.448Z,997.54
2018-10-19T11:58:26.584Z,997.56
2018-10-19T11:59:26.718Z,997.55
2018-10-19T12:00:26.869Z,997.54
2018-10-19T12:01:27.003Z,997.60
2018-10-19T12:02:27.175Z,997.56
2018-10-19T12:03:27.350Z,997.55
2018-10-19T12:04:27.443Z,997.51
2018-10-19T12:05:27.586Z,997.52
2018-10-19T12:06:27.724Z,997.56
2018-10-19T12:07:27.868Z,997.53
2018-10-19T12:08:28.007Z,997.47
2018-10-19T12:09:28.151Z,997.52
2018-10-19T12:10:28.326Z,997.53
2018-10-19T12:11:28.422Z,997.49
2018-10-19T12:12:28.595Z,997.48
2018-10-19T12:13:28.734Z,997.60
2018-10-19T12:14:28.874Z,997.59
2018-10-19T12:15:29.033Z,997.51
2018-10-19T12:16:29.232Z,997.51
2018-10-19T12:17:29.321Z,997.49
2018-10-19T12:18:29.468Z,997.53
2018-10-19T12:19:29.615Z,997.54
2018-10-19T12:20:29.754Z,997.55
2018-10-19T12:21:29.905Z,997.54
2018-10-19T12:22:30.045Z,997.53
2018-10-19T12:23:30.182Z,997.52
2018-10-19T12:24:30.320Z,997.52
2018-10-19T12:25:30.464Z,997.50
2018-10-19T12:26:30.611Z,997.58
2018-10-19T12:27:30.757Z,997.53
2018-10-19T12:28:30.927Z,997.56
2018-10-19T12:29:31.059Z,997.53
2018-10-19T12:30:31.203Z,997.52
2018-10-19T12:31:31.347Z,997.56
2018-10-19T12:32:31.501Z,997.56
2018-10-19T12:33:31.650Z,997.55